Main page
METAR-TAF:

METAR-TAF

Airports :

Sumburgh Airport

Sumburgh, Shetland, Scotland

latitude: 59-53N, longitude: 001-18W, elevation: 5 m

Current weather observation

The report was made 33 minutes ago, at 22:20 UTC
Wind 15 kt from the Southeast
Temperature 8°C
Humidity 71%
Pressure 1010 hPa
Visibility 10 km or more

METAR: EGPB 212220Z AUTO 13015KT 9999 BKN025/// 08/03 Q1010

Time: 22:53 (22:53 UTC)

Forecast

The report was made 2 hours and 59 minutes ago, at 19:54 UTC
Forecast valid from 21 at 21 UTC to 22 at 06 UTC
Wind 14 kt from the East/Southeast
Visibility 10 km or more
Few clouds at a height of 1200 ft
Scattered clouds at a height of 3000 ft
Probability 40% :
Temporary
from 21 at 21 UTC to 22 at 06 UTC
Wind 18 kt from the Southeast with gusts up to 28 kt
Visibility: 7000 m
Broken clouds at a height of 1200 ft
rain showers

TAF: EGPB 211954Z 2121/2206 12014KT 9999 FEW012 SCT030 PROB40 TEMPO 2121/2206 13018G28KT 7000 SHRA BKN012

Weather observations and forecasts of more than 4000 airports (METAR and TAF reports).

The available stations are represented by yellow and red dots on the map.

Hover mouse over dot to see the name of the station.

Then click to see weather observations and forecasts.

To change the map : click on the green buttons with a black cross to zoom in, on the green button with a dash to zoom out, or on the green arrows for adjacent maps.


METAR-TAF: